sensor_id;sensor_type;location;lat;lon;timestamp;temperature;humidity
29575;DHT22;16507;51.046;6.406;2022-09-12T00:00:28;12.20;99.90
29575;DHT22;16507;51.046;6.406;2022-09-12T00:02:56;12.30;99.90
29575;DHT22;16507;51.046;6.406;2022-09-12T00:05:22;12.20;99.90
29575;DHT22;16507;51.046;6.406;2022-09-12T00:07:47;12.20;99.90
29575;DHT22;16507;51.046;6.406;2022-09-12T00:10:14;12.20;99.90
29575;DHT22;16507;51.046;6.406;2022-09-12T00:12:40;12.20;99.90
29575;DHT22;16507;51.046;6.406;2022-09-12T00:15:06;12.10;99.90
29575;DHT22;16507;51.046;6.406;2022-09-12T00:17:36;12.10;99.90
29575;DHT22;16507;51.046;6.406;2022-09-12T00:20:06;12.10;99.90
29575;DHT22;16507;51.046;6.406;2022-09-12T00:22:33;12.10;99.90
29575;DHT22;16507;51.046;6.406;2022-09-12T00:25:01;12.20;99.90
29575;DHT22;16507;51.046;6.406;2022-09-12T00:27:27;12.30;99.90
29575;DHT22;16507;51.046;6.406;2022-09-12T00:29:53;12.30;99.90
29575;DHT22;16507;51.046;6.406;2022-09-12T00:32:19;12.30;99.90
29575;DHT22;16507;51.046;6.406;2022-09-12T00:34:46;12.30;99.90
29575;DHT22;16507;51.046;6.406;2022-09-12T00:37:12;12.30;99.90
29575;DHT22;16507;51.046;6.406;2022-09-12T00:39:38;12.20;99.90
29575;DHT22;16507;51.046;6.406;2022-09-12T00:42:05;12.20;99.90
29575;DHT22;16507;51.046;6.406;2022-09-12T00:47:23;12.20;99.90
29575;DHT22;16507;51.046;6.406;2022-09-12T00:50:06;12.10;99.90
29575;DHT22;16507;51.046;6.406;2022-09-12T00:52:49;12.10;99.90
29575;DHT22;16507;51.046;6.406;2022-09-12T01:00:53;12.10;99.90
29575;DHT22;16507;51.046;6.406;2022-09-12T01:03:20;12.10;99.90
29575;DHT22;16507;51.046;6.406;2022-09-12T01:05:55;12.10;99.90
29575;DHT22;16507;51.046;6.406;2022-09-12T01:08:24;12.20;99.90
29575;DHT22;16507;51.046;6.406;2022-09-12T01:10:50;12.10;99.90
29575;DHT22;16507;51.046;6.406;2022-09-12T01:13:17;12.10;99.90
29575;DHT22;16507;51.046;6.406;2022-09-12T01:15:43;12.20;99.90
29575;DHT22;16507;51.046;6.406;2022-09-12T01:21:18;12.20;99.90
29575;DHT22;16507;51.046;6.406;2022-09-12T01:26:36;12.20;99.90
29575;DHT22;16507;51.046;6.406;2022-09-12T01:29:32;12.30;99.90
29575;DHT22;16507;51.046;6.406;2022-09-12T01:40:25;12.20;99.90
29575;DHT22;16507;51.046;6.406;2022-09-12T01:45:43;12.10;99.90
29575;DHT22;16507;51.046;6.406;2022-09-12T01:48:18;12.10;99.90
29575;DHT22;16507;51.046;6.406;2022-09-12T01:51:12;12.00;99.90
29575;DHT22;16507;51.046;6.406;2022-09-12T01:53:44;11.90;99.90
29575;DHT22;16507;51.046;6.406;2022-09-12T01:56:18;12.00;99.90
29575;DHT22;16507;51.046;6.406;2022-09-12T01:58:53;12.00;99.90
29575;DHT22;16507;51.046;6.406;2022-09-12T02:03:56;12.10;99.90
29575;DHT22;16507;51.046;6.406;2022-09-12T02:06:35;12.10;99.90
29575;DHT22;16507;51.046;6.406;2022-09-12T02:09:08;12.20;99.90
29575;DHT22;16507;51.046;6.406;2022-09-12T02:11:40;12.10;99.90
29575;DHT22;16507;51.046;6.406;2022-09-12T02:14:22;12.20;99.90
29575;DHT22;16507;51.046;6.406;2022-09-12T02:16:57;12.10;99.90
29575;DHT22;16507;51.046;6.406;2022-09-12T02:19:29;12.00;99.90
29575;DHT22;16507;51.046;6.406;2022-09-12T02:21:58;12.00;99.90
29575;DHT22;16507;51.046;6.406;2022-09-12T02:24:28;11.90;99.90
29575;DHT22;16507;51.046;6.406;2022-09-12T02:27:00;11.90;99.90
29575;DHT22;16507;51.046;6.406;2022-09-12T02:29:27;11.80;99.90
29575;DHT22;16507;51.046;6.406;2022-09-12T02:31:57;11.70;99.90
29575;DHT22;16507;51.046;6.406;2022-09-12T02:39:45;11.70;99.90
29575;DHT22;16507;51.046;6.406;2022-09-12T02:42:11;11.70;99.90
29575;DHT22;16507;51.046;6.406;2022-09-12T02:44:38;11.70;99.90
29575;DHT22;16507;51.046;6.406;2022-09-12T02:47:14;11.70;99.90
29575;DHT22;16507;51.046;6.406;2022-09-12T02:49:42;11.70;99.90
29575;DHT22;16507;51.046;6.406;2022-09-12T02:52:08;11.70;99.90
29575;DHT22;16507;51.046;6.406;2022-09-12T02:54:35;11.80;99.90
29575;DHT22;16507;51.046;6.406;2022-09-12T02:57:04;11.80;99.90
29575;DHT22;16507;51.046;6.406;2022-09-12T02:59:30;11.80;99.90
29575;DHT22;16507;51.046;6.406;2022-09-12T03:19:08;11.60;99.90
29575;DHT22;16507;51.046;6.406;2022-09-12T03:26:47;11.60;99.90
29575;DHT22;16507;51.046;6.406;2022-09-12T03:29:15;11.60;99.90
29575;DHT22;16507;51.046;6.406;2022-09-12T03:31:51;11.70;99.90
29575;DHT22;16507;51.046;6.406;2022-09-12T03:34:18;11.80;99.90
29575;DHT22;16507;51.046;6.406;2022-09-12T03:36:44;11.80;99.90
29575;DHT22;16507;51.046;6.406;2022-09-12T03:39:10;11.80;99.90
29575;DHT22;16507;51.046;6.406;2022-09-12T03:41:35;11.90;99.90
29575;DHT22;16507;51.046;6.406;2022-09-12T03:44:02;11.90;99.90
29575;DHT22;16507;51.046;6.406;2022-09-12T03:46:27;11.80;99.90
29575;DHT22;16507;51.046;6.406;2022-09-12T03:48:53;11.80;99.90
29575;DHT22;16507;51.046;6.406;2022-09-12T03:51:19;11.70;99.90
29575;DHT22;16507;51.046;6.406;2022-09-12T03:53:45;11.70;99.90
29575;DHT22;16507;51.046;6.406;2022-09-12T03:56:12;11.80;99.90
29575;DHT22;16507;51.046;6.406;2022-09-12T03:58:38;11.80;99.90
29575;DHT22;16507;51.046;6.406;2022-09-12T04:01:12;11.80;99.90
29575;DHT22;16507;51.046;6.406;2022-09-12T04:03:42;11.70;99.90
29575;DHT22;16507;51.046;6.406;2022-09-12T04:06:10;11.70;99.90
29575;DHT22;16507;51.046;6.406;2022-09-12T04:08:36;11.70;99.90
29575;DHT22;16507;51.046;6.406;2022-09-12T04:11:04;11.70;99.90
29575;DHT22;16507;51.046;6.406;2022-09-12T04:13:29;11.70;99.90
29575;DHT22;16507;51.046;6.406;2022-09-12T04:15:59;11.70;99.90
29575;DHT22;16507;51.046;6.406;2022-09-12T04:18:25;11.70;99.90
29575;DHT22;16507;51.046;6.406;2022-09-12T04:20:51;11.60;99.90
29575;DHT22;16507;51.046;6.406;2022-09-12T04:23:17;11.60;99.90
29575;DHT22;16507;51.046;6.406;2022-09-12T04:25:43;11.60;99.90
29575;DHT22;16507;51.046;6.406;2022-09-12T04:28:08;11.60;99.90
29575;DHT22;16507;51.046;6.406;2022-09-12T04:30:34;11.60;99.90
29575;DHT22;16507;51.046;6.406;2022-09-12T04:32:59;11.60;99.90
29575;DHT22;16507;51.046;6.406;2022-09-12T04:35:25;11.50;99.90
29575;DHT22;16507;51.046;6.406;2022-09-12T04:37:51;11.50;99.90
29575;DHT22;16507;51.046;6.406;2022-09-12T04:40:18;11.50;99.90
29575;DHT22;16507;51.046;6.406;2022-09-12T04:42:43;11.60;99.90
29575;DHT22;16507;51.046;6.406;2022-09-12T04:45:09;11.70;99.90
29575;DHT22;16507;51.046;6.406;2022-09-12T04:47:35;11.80;99.90
29575;DHT22;16507;51.046;6.406;2022-09-12T04:50:01;11.90;99.90
29575;DHT22;16507;51.046;6.406;2022-09-12T04:52:27;12.00;99.90
29575;DHT22;16507;51.046;6.406;2022-09-12T04:54:52;12.10;99.90
29575;DHT22;16507;51.046;6.406;2022-09-12T04:57:18;12.10;99.90
29575;DHT22;16507;51.046;6.406;2022-09-12T04:59:44;12.10;99.90
29575;DHT22;16507;51.046;6.406;2022-09-12T05:02:09;12.20;99.90
29575;DHT22;16507;51.046;6.406;2022-09-12T05:04:35;12.20;99.90
29575;DHT22;16507;51.046;6.406;2022-09-12T05:07:01;12.20;99.90
29575;DHT22;16507;51.046;6.406;2022-09-12T05:09:27;12.30;99.90
29575;DHT22;16507;51.046;6.406;2022-09-12T05:11:53;12.30;99.90
29575;DHT22;16507;51.046;6.406;2022-09-12T05:14:19;12.30;99.90
29575;DHT22;16507;51.046;6.406;2022-09-12T05:16:44;12.30;99.90
29575;DHT22;16507;51.046;6.406;2022-09-12T05:19:10;12.40;99.90
29575;DHT22;16507;51.046;6.406;2022-09-12T05:21:37;12.40;99.90
29575;DHT22;16507;51.046;6.406;2022-09-12T05:24:03;12.50;99.90
29575;DHT22;16507;51.046;6.406;2022-09-12T05:26:30;12.60;99.90
29575;DHT22;16507;51.046;6.406;2022-09-12T05:28:56;12.60;99.90
29575;DHT22;16507;51.046;6.406;2022-09-12T05:31:24;12.70;99.90
29575;DHT22;16507;51.046;6.406;2022-09-12T05:33:51;12.70;99.90
29575;DHT22;16507;51.046;6.406;2022-09-12T05:36:21;12.80;99.90
29575;DHT22;16507;51.046;6.406;2022-09-12T05:38:48;12.80;99.90
29575;DHT22;16507;51.046;6.406;2022-09-12T05:41:19;12.90;99.90
29575;DHT22;16507;51.046;6.406;2022-09-12T05:43:46;13.00;99.90
29575;DHT22;16507;51.046;6.406;2022-09-12T05:46:17;13.10;99.90
29575;DHT22;16507;51.046;6.406;2022-09-12T05:48:44;13.20;99.90
29575;DHT22;16507;51.046;6.406;2022-09-12T05:51:18;13.30;99.90
29575;DHT22;16507;51.046;6.406;2022-09-12T05:53:47;13.40;99.90
29575;DHT22;16507;51.046;6.406;2022-09-12T05:56:16;13.40;99.90
29575;DHT22;16507;51.046;6.406;2022-09-12T05:58:44;13.50;99.90
29575;DHT22;16507;51.046;6.406;2022-09-12T06:01:15;13.60;99.90
29575;DHT22;16507;51.046;6.406;2022-09-12T06:03:47;13.70;99.90
29575;DHT22;16507;51.046;6.406;2022-09-12T06:06:14;13.90;99.90
29575;DHT22;16507;51.046;6.406;2022-09-12T06:08:42;14.30;99.90
29575;DHT22;16507;51.046;6.406;2022-09-12T06:11:10;14.80;99.90
29575;DHT22;16507;51.046;6.406;2022-09-12T06:13:37;15.30;99.90
29575;DHT22;16507;51.046;6.406;2022-09-12T06:16:06;15.80;99.90
29575;DHT22;16507;51.046;6.406;2022-09-12T06:18:33;16.40;99.90
29575;DHT22;16507;51.046;6.406;2022-09-12T06:23:29;15.80;99.90
29575;DHT22;16507;51.046;6.406;2022-09-12T06:25:55;15.70;99.90
29575;DHT22;16507;51.046;6.406;2022-09-12T06:28:20;15.80;99.90
29575;DHT22;16507;51.046;6.406;2022-09-12T06:30:46;15.60;99.90
29575;DHT22;16507;51.046;6.406;2022-09-12T06:33:13;15.40;99.90
29575;DHT22;16507;51.046;6.406;2022-09-12T06:35:39;15.40;99.90
29575;DHT22;16507;51.046;6.406;2022-09-12T06:38:05;15.40;99.90
29575;DHT22;16507;51.046;6.406;2022-09-12T06:40:31;15.40;99.90
29575;DHT22;16507;51.046;6.406;2022-09-12T06:42:57;15.40;99.90
29575;DHT22;16507;51.046;6.406;2022-09-12T06:45:23;15.40;99.90
29575;DHT22;16507;51.046;6.406;2022-09-12T06:47:50;15.30;99.90
29575;DHT22;16507;51.046;6.406;2022-09-12T06:50:16;15.10;99.90
29575;DHT22;16507;51.046;6.406;2022-09-12T06:52:42;15.10;99.90
29575;DHT22;16507;51.046;6.406;2022-09-12T06:55:09;15.10;99.90
29575;DHT22;16507;51.046;6.406;2022-09-12T06:57:35;15.20;99.90
29575;DHT22;16507;51.046;6.406;2022-09-12T07:00:06;15.20;99.90
29575;DHT22;16507;51.046;6.406;2022-09-12T07:02:32;15.30;99.90
29575;DHT22;16507;51.046;6.406;2022-09-12T07:04:58;15.30;99.90
29575;DHT22;16507;51.046;6.406;2022-09-12T07:07:23;15.40;99.90
29575;DHT22;16507;51.046;6.406;2022-09-12T07:09:49;15.60;99.90
29575;DHT22;16507;51.046;6.406;2022-09-12T07:12:15;15.70;99.90
29575;DHT22;16507;51.046;6.406;2022-09-12T07:14:40;15.90;99.90
29575;DHT22;16507;51.046;6.406;2022-09-12T07:17:06;16.10;99.90
29575;DHT22;16507;51.046;6.406;2022-09-12T07:19:33;16.10;99.90
29575;DHT22;16507;51.046;6.406;2022-09-12T07:21:59;16.10;99.90
29575;DHT22;16507;51.046;6.406;2022-09-12T07:24:25;16.20;99.90
29575;DHT22;16507;51.046;6.406;2022-09-12T07:26:50;16.30;99.90
29575;DHT22;16507;51.046;6.406;2022-09-12T07:29:16;16.50;99.90
29575;DHT22;16507;51.046;6.406;2022-09-12T07:31:42;16.60;99.90
29575;DHT22;16507;51.046;6.406;2022-09-12T07:34:08;16.70;99.90
29575;DHT22;16507;51.046;6.406;2022-09-12T07:36:34;16.70;99.90
29575;DHT22;16507;51.046;6.406;2022-09-12T07:39:00;16.80;99.90
29575;DHT22;16507;51.046;6.406;2022-09-12T07:41:28;16.70;99.90
29575;DHT22;16507;51.046;6.406;2022-09-12T07:43:55;16.90;99.90
29575;DHT22;16507;51.046;6.406;2022-09-12T07:46:22;17.00;99.90
29575;DHT22;16507;51.046;6.406;2022-09-12T07:48:50;17.10;99.90
29575;DHT22;16507;51.046;6.406;2022-09-12T07:51:16;17.10;99.90
29575;DHT22;16507;51.046;6.406;2022-09-12T07:53:42;17.20;99.90
29575;DHT22;16507;51.046;6.406;2022-09-12T07:56:11;17.00;99.90
29575;DHT22;16507;51.046;6.406;2022-09-12T07:58:38;17.10;99.90
29575;DHT22;16507;51.046;6.406;2022-09-12T08:01:23;17.10;99.90
29575;DHT22;16507;51.046;6.406;2022-09-12T08:03:54;16.90;99.90
29575;DHT22;16507;51.046;6.406;2022-09-12T08:06:22;16.90;99.90
29575;DHT22;16507;51.046;6.406;2022-09-12T08:08:51;16.80;99.90
29575;DHT22;16507;51.046;6.406;2022-09-12T08:11:19;16.90;99.90
29575;DHT22;16507;51.046;6.406;2022-09-12T08:13:46;16.90;99.90
29575;DHT22;16507;51.046;6.406;2022-09-12T08:16:17;17.00;99.90
29575;DHT22;16507;51.046;6.406;2022-09-12T08:18:43;17.20;99.90
29575;DHT22;16507;51.046;6.406;2022-09-12T08:21:21;17.50;99.90
29575;DHT22;16507;51.046;6.406;2022-09-12T08:23:52;17.70;99.90
29575;DHT22;16507;51.046;6.406;2022-09-12T08:26:18;17.90;99.90
29575;DHT22;16507;51.046;6.406;2022-09-12T08:28:44;18.10;99.90
29575;DHT22;16507;51.046;6.406;2022-09-12T08:31:13;18.10;99.90
29575;DHT22;16507;51.046;6.406;2022-09-12T08:33:39;18.20;99.90
29575;DHT22;16507;51.046;6.406;2022-09-12T08:36:08;18.50;99.90
29575;DHT22;16507;51.046;6.406;2022-09-12T08:38:36;18.80;99.90
29575;DHT22;16507;51.046;6.406;2022-09-12T08:46:31;19.00;99.90
29575;DHT22;16507;51.046;6.406;2022-09-12T08:49:02;19.20;99.90
29575;DHT22;16507;51.046;6.406;2022-09-12T08:51:30;19.40;99.90
29575;DHT22;16507;51.046;6.406;2022-09-12T08:54:01;19.50;99.90
29575;DHT22;16507;51.046;6.406;2022-09-12T08:56:33;19.70;99.90
29575;DHT22;16507;51.046;6.406;2022-09-12T08:59:00;19.80;99.90
29575;DHT22;16507;51.046;6.406;2022-09-12T09:01:40;20.00;99.90
29575;DHT22;16507;51.046;6.406;2022-09-12T09:16:50;20.60;99.90
29575;DHT22;16507;51.046;6.406;2022-09-12T09:19:44;21.00;99.90
29575;DHT22;16507;51.046;6.406;2022-09-12T09:22:43;20.70;99.90
29575;DHT22;16507;51.046;6.406;2022-09-12T09:25:24;20.70;99.90
29575;DHT22;16507;51.046;6.406;2022-09-12T09:28:09;21.00;99.90
29575;DHT22;16507;51.046;6.406;2022-09-12T09:31:33;21.30;99.90
29575;DHT22;16507;51.046;6.406;2022-09-12T09:34:00;21.40;99.90
29575;DHT22;16507;51.046;6.406;2022-09-12T09:45:30;21.70;99.90
29575;DHT22;16507;51.046;6.406;2022-09-12T09:48:36;21.90;99.90
29575;DHT22;16507;51.046;6.406;2022-09-12T09:51:31;21.80;99.90
29575;DHT22;16507;51.046;6.406;2022-09-12T09:54:22;22.00;99.90
29575;DHT22;16507;51.046;6.406;2022-09-12T09:57:45;22.00;99.90
29575;DHT22;16507;51.046;6.406;2022-09-12T10:00:49;21.90;99.90
29575;DHT22;16507;51.046;6.406;2022-09-12T10:03:27;22.10;99.90
29575;DHT22;16507;51.046;6.406;2022-09-12T10:09:34;22.40;99.90
29575;DHT22;16507;51.046;6.406;2022-09-12T10:12:26;22.30;99.90
29575;DHT22;16507;51.046;6.406;2022-09-12T10:18:41;22.70;99.90
29575;DHT22;16507;51.046;6.406;2022-09-12T10:21:49;22.60;99.90
29575;DHT22;16507;51.046;6.406;2022-09-12T10:24:53;22.70;99.90
29575;DHT22;16507;51.046;6.406;2022-09-12T10:28:03;22.80;99.90
29575;DHT22;16507;51.046;6.406;2022-09-12T10:31:13;22.70;99.90
29575;DHT22;16507;51.046;6.406;2022-09-12T10:33:47;23.00;99.90
29575;DHT22;16507;51.046;6.406;2022-09-12T10:36:45;23.20;99.90
29575;DHT22;16507;51.046;6.406;2022-09-12T10:39:22;23.30;99.90
29575;DHT22;16507;51.046;6.406;2022-09-12T10:45:57;24.00;99.90
29575;DHT22;16507;51.046;6.406;2022-09-12T10:48:30;23.90;99.90
29575;DHT22;16507;51.046;6.406;2022-09-12T10:51:00;23.60;99.90
29575;DHT22;16507;51.046;6.406;2022-09-12T10:54:02;23.50;99.90
29575;DHT22;16507;51.046;6.406;2022-09-12T11:06:26;24.20;93.30
29575;DHT22;16507;51.046;6.406;2022-09-12T11:16:39;24.20;86.60
29575;DHT22;16507;51.046;6.406;2022-09-12T11:20:21;24.40;85.30
29575;DHT22;16507;51.046;6.406;2022-09-12T11:30:36;24.20;90.50
29575;DHT22;16507;51.046;6.406;2022-09-12T11:34:06;24.20;93.20
29575;DHT22;16507;51.046;6.406;2022-09-12T11:40:42;24.90;78.40
29575;DHT22;16507;51.046;6.406;2022-09-12T11:44:11;25.20;68.20
29575;DHT22;16507;51.046;6.406;2022-09-12T11:47:16;25.20;70.20
29575;DHT22;16507;51.046;6.406;2022-09-12T11:49:50;25.50;76.80
29575;DHT22;16507;51.046;6.406;2022-09-12T11:52:36;25.50;83.00
29575;DHT22;16507;51.046;6.406;2022-09-12T11:56:01;25.60;67.60
29575;DHT22;16507;51.046;6.406;2022-09-12T11:58:32;25.40;70.80
29575;DHT22;16507;51.046;6.406;2022-09-12T12:04:24;25.50;73.50
29575;DHT22;16507;51.046;6.406;2022-09-12T12:07:10;25.50;61.90
29575;DHT22;16507;51.046;6.406;2022-09-12T12:10:00;25.60;75.90
29575;DHT22;16507;51.046;6.406;2022-09-12T12:12:44;25.80;70.30
29575;DHT22;16507;51.046;6.406;2022-09-12T12:15:44;25.80;62.80
29575;DHT22;16507;51.046;6.406;2022-09-12T12:26:39;26.10;59.20
29575;DHT22;16507;51.046;6.406;2022-09-12T12:29:01;26.20;58.80
29575;DHT22;16507;51.046;6.406;2022-09-12T12:31:30;26.30;57.60
29575;DHT22;16507;51.046;6.406;2022-09-12T12:34:31;26.20;55.80
29575;DHT22;16507;51.046;6.406;2022-09-12T12:43:29;26.80;54.70
29575;DHT22;16507;51.046;6.406;2022-09-12T12:46:04;26.70;55.80
29575;DHT22;16507;51.046;6.406;2022-09-12T12:51:57;27.10;49.00
29575;DHT22;16507;51.046;6.406;2022-09-12T12:55:01;27.10;49.70
29575;DHT22;16507;51.046;6.406;2022-09-12T13:00:34;27.10;51.60
29575;DHT22;16507;51.046;6.406;2022-09-12T13:05:49;26.90;44.70
29575;DHT22;16507;51.046;6.406;2022-09-12T13:08:31;27.00;43.30
29575;DHT22;16507;51.046;6.406;2022-09-12T13:11:33;27.20;43.40
29575;DHT22;16507;51.046;6.406;2022-09-12T13:14:37;27.00;42.20
29575;DHT22;16507;51.046;6.406;2022-09-12T13:17:40;27.40;45.90
29575;DHT22;16507;51.046;6.406;2022-09-12T13:20:33;27.50;49.40
29575;DHT22;16507;51.046;6.406;2022-09-12T13:23:23;26.90;39.50
29575;DHT22;16507;51.046;6.406;2022-09-12T13:25:59;26.90;39.60
29575;DHT22;16507;51.046;6.406;2022-09-12T13:28:39;26.80;36.90
29575;DHT22;16507;51.046;6.406;2022-09-12T13:34:00;26.90;44.20
29575;DHT22;16507;51.046;6.406;2022-09-12T13:43:44;27.50;33.40
29575;DHT22;16507;51.046;6.406;2022-09-12T13:50:58;27.70;35.80
29575;DHT22;16507;51.046;6.406;2022-09-12T13:54:06;27.60;31.30
29575;DHT22;16507;51.046;6.406;2022-09-12T13:56:48;27.30;32.40
29575;DHT22;16507;51.046;6.406;2022-09-12T13:59:42;27.70;38.20
29575;DHT22;16507;51.046;6.406;2022-09-12T14:03:13;27.80;31.60
29575;DHT22;16507;51.046;6.406;2022-09-12T14:06:26;28.10;33.30
29575;DHT22;16507;51.046;6.406;2022-09-12T14:26:27;27.80;26.90
29575;DHT22;16507;51.046;6.406;2022-09-12T15:15:42;27.30;22.80
29575;DHT22;16507;51.046;6.406;2022-09-12T15:56:24;26.60;19.50
29575;DHT22;16507;51.046;6.406;2022-09-12T16:49:33;25.20;28.80
29575;DHT22;16507;51.046;6.406;2022-09-12T16:52:12;24.80;33.10
29575;DHT22;16507;51.046;6.406;2022-09-12T16:55:05;24.60;38.20
29575;DHT22;16507;51.046;6.406;2022-09-12T17:01:46;24.30;49.10
29575;DHT22;16507;51.046;6.406;2022-09-12T17:04:56;24.20;53.20
29575;DHT22;16507;51.046;6.406;2022-09-12T17:07:58;24.10;63.50
29575;DHT22;16507;51.046;6.406;2022-09-12T17:10:46;23.90;82.90
29575;DHT22;16507;51.046;6.406;2022-09-12T17:14:06;23.70;83.40
29575;DHT22;16507;51.046;6.406;2022-09-12T17:17:19;23.60;86.50
29575;DHT22;16507;51.046;6.406;2022-09-12T17:19:50;23.40;92.10
29575;DHT22;16507;51.046;6.406;2022-09-12T17:22:53;23.30;96.80
29575;DHT22;16507;51.046;6.406;2022-09-12T17:28:50;22.80;99.90
29575;DHT22;16507;51.046;6.406;2022-09-12T17:39:02;22.00;99.90
29575;DHT22;16507;51.046;6.406;2022-09-12T17:41:32;21.80;99.90
29575;DHT22;16507;51.046;6.406;2022-09-12T17:44:54;21.60;99.90
29575;DHT22;16507;51.046;6.406;2022-09-12T17:48:04;21.20;99.90
29575;DHT22;16507;51.046;6.406;2022-09-12T17:50:56;21.00;99.90
29575;DHT22;16507;51.046;6.406;2022-09-12T17:53:41;20.80;99.90
29575;DHT22;16507;51.046;6.406;2022-09-12T17:56:28;20.70;99.90
29575;DHT22;16507;51.046;6.406;2022-09-12T17:59:25;20.50;99.90
29575;DHT22;16507;51.046;6.406;2022-09-12T18:02:39;20.30;99.90
29575;DHT22;16507;51.046;6.406;2022-09-12T18:05:35;20.10;99.90
29575;DHT22;16507;51.046;6.406;2022-09-12T18:08:24;20.00;99.90
29575;DHT22;16507;51.046;6.406;2022-09-12T18:11:05;19.90;99.90
29575;DHT22;16507;51.046;6.406;2022-09-12T18:13:52;19.70;99.90
29575;DHT22;16507;51.046;6.406;2022-09-12T18:16:45;19.60;99.90
29575;DHT22;16507;51.046;6.406;2022-09-12T18:19:35;19.40;99.90
29575;DHT22;16507;51.046;6.406;2022-09-12T18:22:52;19.30;99.90
29575;DHT22;16507;51.046;6.406;2022-09-12T18:25:23;19.30;99.90
29575;DHT22;16507;51.046;6.406;2022-09-12T18:27:53;19.20;99.90
29575;DHT22;16507;51.046;6.406;2022-09-12T18:31:21;19.10;99.90
29575;DHT22;16507;51.046;6.406;2022-09-12T18:34:28;18.90;99.90
29575;DHT22;16507;51.046;6.406;2022-09-12T18:40:35;18.60;99.90
29575;DHT22;16507;51.046;6.406;2022-09-12T18:44:09;18.60;99.90
29575;DHT22;16507;51.046;6.406;2022-09-12T18:46:42;18.40;99.90
29575;DHT22;16507;51.046;6.406;2022-09-12T18:49:58;18.40;99.90
29575;DHT22;16507;51.046;6.406;2022-09-12T18:53:03;18.30;99.90
29575;DHT22;16507;51.046;6.406;2022-09-12T18:56:07;18.30;99.90
29575;DHT22;16507;51.046;6.406;2022-09-12T18:59:18;18.30;99.90
29575;DHT22;16507;51.046;6.406;2022-09-12T19:02:01;18.20;99.90
29575;DHT22;16507;51.046;6.406;2022-09-12T19:04:59;18.10;99.90
29575;DHT22;16507;51.046;6.406;2022-09-12T19:08:06;18.00;99.90
29575;DHT22;16507;51.046;6.406;2022-09-12T19:11:10;18.00;99.90
29575;DHT22;16507;51.046;6.406;2022-09-12T19:14:20;18.10;99.90
29575;DHT22;16507;51.046;6.406;2022-09-12T19:17:50;18.10;99.90
29575;DHT22;16507;51.046;6.406;2022-09-12T19:24:24;18.00;99.90
29575;DHT22;16507;51.046;6.406;2022-09-12T19:27:27;18.00;99.90
29575;DHT22;16507;51.046;6.406;2022-09-12T19:30:44;18.00;99.90
29575;DHT22;16507;51.046;6.406;2022-09-12T19:33:25;17.90;99.90
29575;DHT22;16507;51.046;6.406;2022-09-12T19:35:59;17.90;99.90
29575;DHT22;16507;51.046;6.406;2022-09-12T19:38:31;17.80;99.90
29575;DHT22;16507;51.046;6.406;2022-09-12T19:41:12;17.80;99.90
29575;DHT22;16507;51.046;6.406;2022-09-12T19:43:50;17.80;99.90
29575;DHT22;16507;51.046;6.406;2022-09-12T19:46:19;17.80;99.90
29575;DHT22;16507;51.046;6.406;2022-09-12T19:48:48;17.80;99.90
29575;DHT22;16507;51.046;6.406;2022-09-12T19:51:37;17.80;99.90
29575;DHT22;16507;51.046;6.406;2022-09-12T19:54:03;17.70;99.90
29575;DHT22;16507;51.046;6.406;2022-09-12T19:56:30;17.70;99.90
29575;DHT22;16507;51.046;6.406;2022-09-12T19:58:57;17.70;99.90
29575;DHT22;16507;51.046;6.406;2022-09-12T20:01:24;17.70;99.90
29575;DHT22;16507;51.046;6.406;2022-09-12T20:03:54;17.60;99.90
29575;DHT22;16507;51.046;6.406;2022-09-12T20:06:20;17.60;99.90
29575;DHT22;16507;51.046;6.406;2022-09-12T20:08:48;17.60;99.90
29575;DHT22;16507;51.046;6.406;2022-09-12T20:11:16;17.60;99.90
29575;DHT22;16507;51.046;6.406;2022-09-12T20:13:44;17.70;99.90
29575;DHT22;16507;51.046;6.406;2022-09-12T20:16:21;17.70;99.90
29575;DHT22;16507;51.046;6.406;2022-09-12T20:18:57;17.70;99.90
29575;DHT22;16507;51.046;6.406;2022-09-12T20:21:34;17.70;99.90
29575;DHT22;16507;51.046;6.406;2022-09-12T20:24:13;17.70;99.90
29575;DHT22;16507;51.046;6.406;2022-09-12T20:26:41;17.80;99.90
29575;DHT22;16507;51.046;6.406;2022-09-12T20:29:19;17.90;99.90
29575;DHT22;16507;51.046;6.406;2022-09-12T20:32:01;18.00;99.90
29575;DHT22;16507;51.046;6.406;2022-09-12T20:34:53;18.00;99.90
29575;DHT22;16507;51.046;6.406;2022-09-12T20:37:23;18.10;99.90
29575;DHT22;16507;51.046;6.406;2022-09-12T20:39:50;18.10;99.90
29575;DHT22;16507;51.046;6.406;2022-09-12T20:42:17;18.10;99.90
29575;DHT22;16507;51.046;6.406;2022-09-12T20:44:48;18.20;99.90
29575;DHT22;16507;51.046;6.406;2022-09-12T20:47:19;18.10;99.90
29575;DHT22;16507;51.046;6.406;2022-09-12T20:49:47;18.20;99.90
29575;DHT22;16507;51.046;6.406;2022-09-12T20:52:13;18.20;99.90
29575;DHT22;16507;51.046;6.406;2022-09-12T20:54:53;18.20;99.90
29575;DHT22;16507;51.046;6.406;2022-09-12T20:57:21;18.20;99.90
29575;DHT22;16507;51.046;6.406;2022-09-12T20:59:47;18.30;99.90
29575;DHT22;16507;51.046;6.406;2022-09-12T21:02:16;18.20;99.90
29575;DHT22;16507;51.046;6.406;2022-09-12T21:04:49;18.20;99.90
29575;DHT22;16507;51.046;6.406;2022-09-12T21:07:16;18.20;99.90
29575;DHT22;16507;51.046;6.406;2022-09-12T21:09:45;18.20;99.90
29575;DHT22;16507;51.046;6.406;2022-09-12T21:12:11;18.30;99.90
29575;DHT22;16507;51.046;6.406;2022-09-12T21:14:37;18.30;99.90
29575;DHT22;16507;51.046;6.406;2022-09-12T21:17:02;18.30;99.90
29575;DHT22;16507;51.046;6.406;2022-09-12T21:19:29;18.30;99.90
29575;DHT22;16507;51.046;6.406;2022-09-12T21:21:58;18.20;99.90
29575;DHT22;16507;51.046;6.406;2022-09-12T21:24:24;18.20;99.90
29575;DHT22;16507;51.046;6.406;2022-09-12T21:26:49;18.10;99.90
29575;DHT22;16507;51.046;6.406;2022-09-12T21:29:15;18.10;99.90
29575;DHT22;16507;51.046;6.406;2022-09-12T21:31:43;18.10;99.90
29575;DHT22;16507;51.046;6.406;2022-09-12T21:34:10;18.10;99.90
29575;DHT22;16507;51.046;6.406;2022-09-12T21:36:54;18.10;99.90
29575;DHT22;16507;51.046;6.406;2022-09-12T21:39:21;18.00;99.90
29575;DHT22;16507;51.046;6.406;2022-09-12T21:41:51;17.80;99.90
29575;DHT22;16507;51.046;6.406;2022-09-12T21:44:17;17.80;99.90
29575;DHT22;16507;51.046;6.406;2022-09-12T21:46:43;17.90;99.90
29575;DHT22;16507;51.046;6.406;2022-09-12T21:49:18;17.90;99.90
29575;DHT22;16507;51.046;6.406;2022-09-12T21:51:44;17.80;99.90
29575;DHT22;16507;51.046;6.406;2022-09-12T21:54:10;17.70;99.90
29575;DHT22;16507;51.046;6.406;2022-09-12T21:56:36;17.70;99.90
29575;DHT22;16507;51.046;6.406;2022-09-12T21:59:01;17.60;99.90
29575;DHT22;16507;51.046;6.406;2022-09-12T22:01:29;17.60;99.90
29575;DHT22;16507;51.046;6.406;2022-09-12T22:03:57;17.60;99.90
29575;DHT22;16507;51.046;6.406;2022-09-12T22:06:23;17.50;99.90
29575;DHT22;16507;51.046;6.406;2022-09-12T22:08:54;17.70;99.90